createdAt,value
2024-01-18T00:01:23.402Z,95729.53
2024-01-18T00:04:25.365Z,95741.56
2024-01-18T00:07:27.077Z,95716.16
2024-01-18T00:10:29.239Z,95726.78
2024-01-18T00:13:30.673Z,95731.31
2024-01-18T00:16:34.229Z,95742.72
2024-01-18T00:19:35.942Z,95751.16
2024-01-18T00:22:37.679Z,95742.94
2024-01-18T00:25:39.192Z,95743.53
2024-01-18T00:28:40.720Z,95742.03
2024-01-18T00:31:42.303Z,95741.53
2024-01-18T00:34:43.792Z,95741.09
2024-01-18T00:37:45.814Z,95748.28
2024-01-18T00:40:47.308Z,95746.63
2024-01-18T00:43:49.266Z,95752.88
2024-01-18T00:46:50.740Z,95751.59
2024-01-18T00:49:52.200Z,95758.81
2024-01-18T00:52:53.677Z,95747.09
2024-01-18T00:55:55.314Z,95747.31
2024-01-18T00:58:56.809Z,95760.88
2024-01-18T01:01:58.295Z,95762.66
2024-01-18T01:04:59.739Z,95763.00
2024-01-18T01:08:01.200Z,95759.22
2024-01-18T01:11:05.905Z,95768.78
2024-01-18T01:14:07.372Z,95766.16
2024-01-18T01:17:08.816Z,95762.84
2024-01-18T01:20:13.672Z,95759.91
2024-01-18T01:23:15.216Z,95771.69
2024-01-18T01:26:17.024Z,95773.84
2024-01-18T01:29:18.488Z,95770.84
2024-01-18T01:32:19.919Z,95770.50
2024-01-18T01:35:21.402Z,95777.22
2024-01-18T01:38:22.834Z,95778.03
2024-01-18T01:41:24.309Z,95793.75
2024-01-18T01:44:25.785Z,95791.09
2024-01-18T01:47:27.190Z,95788.03
2024-01-18T01:50:28.653Z,95784.00
2024-01-18T01:53:30.156Z,95774.94
2024-01-18T01:56:32.228Z,95781.66
2024-01-18T01:59:33.695Z,95790.56
2024-01-18T02:02:35.284Z,95782.25
2024-01-18T02:05:36.841Z,95785.03
2024-01-18T02:08:38.341Z,95771.81
2024-01-18T02:11:39.789Z,95768.41
2024-01-18T02:14:41.459Z,95771.41
2024-01-18T02:17:42.924Z,95765.19
2024-01-18T02:20:44.739Z,95763.69
2024-01-18T02:23:49.786Z,95766.69
2024-01-18T02:26:51.237Z,95758.06
2024-01-18T02:29:52.635Z,95759.81
2024-01-18T02:32:54.224Z,95754.22
2024-01-18T02:35:55.749Z,95739.03
2024-01-18T02:38:57.317Z,95728.78
2024-01-18T02:41:58.887Z,95739.50
2024-01-18T02:45:00.497Z,95747.06
2024-01-18T02:48:02.083Z,95749.00
2024-01-18T02:51:04.730Z,95741.19
2024-01-18T02:54:06.249Z,95745.63
2024-01-18T02:57:07.777Z,95746.38
2024-01-18T03:00:09.472Z,95744.44
2024-01-18T03:03:10.946Z,95749.69
2024-01-18T03:06:12.584Z,95740.53
2024-01-18T03:09:15.345Z,95744.38
2024-01-18T03:12:16.880Z,95739.94
2024-01-18T03:15:18.401Z,95728.53
2024-01-18T03:18:19.936Z,95728.88
2024-01-18T03:21:21.702Z,95738.19
2024-01-18T03:24:23.214Z,95741.53
2024-01-18T03:27:24.761Z,95733.38
2024-01-18T03:30:26.276Z,95729.28
2024-01-18T03:33:27.899Z,95724.22
2024-01-18T03:36:29.815Z,95717.09
2024-01-18T03:39:35.232Z,95716.56
2024-01-18T03:42:39.485Z,95712.06
2024-01-18T03:45:41.122Z,95704.28
2024-01-18T03:48:42.780Z,95703.38
2024-01-18T03:51:44.311Z,95708.63
2024-01-18T03:54:48.138Z,95704.69
2024-01-18T03:57:49.643Z,95697.88
2024-01-18T04:00:51.358Z,95703.66
2024-01-18T04:03:52.930Z,95691.88
2024-01-18T04:06:54.601Z,95695.44
2024-01-18T04:09:56.138Z,95702.56
2024-01-18T04:12:58.077Z,95700.94
2024-01-18T04:15:59.543Z,95709.13
2024-01-18T04:19:01.187Z,95702.88
2024-01-18T04:22:02.734Z,95715.03
2024-01-18T04:25:04.895Z,95710.16
2024-01-18T04:28:06.557Z,95713.41
2024-01-18T04:31:08.134Z,95701.66
2024-01-18T04:34:09.632Z,95697.56
2024-01-18T04:37:12.425Z,95696.56
2024-01-18T04:40:14.034Z,95703.63
2024-01-18T04:43:15.512Z,95693.03
2024-01-18T04:46:17.037Z,95696.00
2024-01-18T04:49:18.510Z,95697.03
2024-01-18T04:52:21.997Z,95687.06
2024-01-18T04:55:23.483Z,95694.31
2024-01-18T04:58:24.956Z,95681.03
2024-01-18T05:01:26.561Z,95681.25
2024-01-18T05:04:28.179Z,95688.09
2024-01-18T05:07:29.950Z,95681.03
2024-01-18T05:10:31.495Z,95670.66
2024-01-18T05:13:33.565Z,95672.75
2024-01-18T05:16:40.844Z,95665.75
2024-01-18T05:19:42.467Z,95653.31
2024-01-18T05:22:44.127Z,95665.06
2024-01-18T05:25:45.723Z,95661.28
2024-01-18T05:28:47.844Z,95656.50
2024-01-18T05:31:49.279Z,95660.78
2024-01-18T05:34:50.801Z,95647.78
2024-01-18T05:37:52.322Z,95659.09
2024-01-18T05:40:53.766Z,95639.47
2024-01-18T05:43:56.318Z,95640.56
2024-01-18T05:46:57.885Z,95637.47
2024-01-18T05:49:59.382Z,95639.41
2024-01-18T05:53:00.928Z,95630.09
2024-01-18T05:56:02.498Z,95632.81
2024-01-18T05:59:03.983Z,95644.00
2024-01-18T06:02:05.484Z,95629.38
2024-01-18T06:05:09.704Z,95633.97
2024-01-18T06:08:12.680Z,95637.41
2024-01-18T06:11:15.606Z,95634.81
2024-01-18T06:14:17.067Z,95622.03
2024-01-18T06:17:18.567Z,95636.56
2024-01-18T06:20:20.956Z,95622.97
2024-01-18T06:23:22.432Z,95637.22
2024-01-18T06:26:24.008Z,95625.13
2024-01-18T06:29:31.345Z,95630.81
2024-01-18T06:32:32.850Z,95631.66
2024-01-18T06:35:34.624Z,95628.88
2024-01-18T06:38:36.324Z,95638.03
2024-01-18T06:41:40.203Z,95637.88
2024-01-18T06:44:44.652Z,95636.06
2024-01-18T06:47:46.323Z,95628.22
2024-01-18T06:50:47.855Z,95625.38
2024-01-18T06:53:49.305Z,95622.88
2024-01-18T06:56:50.856Z,95627.25
2024-01-18T06:59:56.081Z,95628.06
2024-01-18T07:02:57.859Z,95640.44
2024-01-18T07:05:59.303Z,95629.31
2024-01-18T07:09:00.873Z,95638.03
2024-01-18T07:12:02.427Z,95634.97
2024-01-18T07:15:04.938Z,95631.22
2024-01-18T07:18:06.475Z,95641.63
2024-01-18T07:21:08.147Z,95637.91
2024-01-18T07:24:10.842Z,95644.88
2024-01-18T07:27:13.054Z,95640.06
2024-01-18T07:30:15.633Z,95649.31
2024-01-18T07:33:18.003Z,95646.84
2024-01-18T07:36:19.686Z,95660.47
2024-01-18T07:39:21.442Z,95658.44
2024-01-18T07:42:22.976Z,95652.59
2024-01-18T07:45:24.515Z,95656.66
2024-01-18T07:48:26.786Z,95666.66
2024-01-18T07:51:29.175Z,95640.00
2024-01-18T07:54:30.733Z,95652.56
2024-01-18T07:57:32.436Z,95653.75
2024-01-18T08:00:34.190Z,95656.25
2024-01-18T08:03:35.894Z,95646.09
2024-01-18T08:06:37.616Z,95667.22
2024-01-18T08:09:39.638Z,95646.59
2024-01-18T08:12:43.695Z,95657.19
2024-01-18T08:15:45.284Z,95671.69
2024-01-18T08:18:48.051Z,95660.53
2024-01-18T08:21:49.753Z,95663.53
2024-01-18T08:24:51.559Z,95660.34
2024-01-18T08:27:55.416Z,95691.97
2024-01-18T08:30:58.903Z,95672.06
2024-01-18T08:34:00.534Z,95687.25
2024-01-18T08:37:02.442Z,95692.50
2024-01-18T08:40:04.219Z,95692.63
2024-01-18T08:43:05.656Z,95682.44
2024-01-18T08:46:08.314Z,95696.59
2024-01-18T08:49:09.844Z,95691.25
2024-01-18T08:52:12.007Z,95700.72
2024-01-18T08:55:13.686Z,95712.28
2024-01-18T08:58:15.118Z,95727.47
2024-01-18T09:01:19.575Z,95751.75
2024-01-18T09:04:21.193Z,95763.16
2024-01-18T09:07:22.732Z,95769.28
2024-01-18T09:10:24.268Z,95766.00
2024-01-18T09:13:25.797Z,95761.63
2024-01-18T09:16:31.738Z,95803.88
2024-01-18T09:19:33.287Z,95827.34
2024-01-18T09:22:34.811Z,95821.56
2024-01-18T09:25:36.312Z,95824.41
2024-01-18T09:28:37.745Z,95833.94
2024-01-18T09:31:42.805Z,95850.56
2024-01-18T09:34:45.038Z,95878.94
2024-01-18T09:37:46.496Z,95895.44
2024-01-18T09:40:48.047Z,95922.03
2024-01-18T09:43:49.526Z,95935.91
2024-01-18T09:46:53.484Z,95960.88
2024-01-18T09:49:55.044Z,95982.38
2024-01-18T09:52:56.524Z,95973.03
2024-01-18T09:56:01.681Z,95992.72
2024-01-18T09:59:05.196Z,96008.97
2024-01-18T10:02:06.777Z,96020.13
2024-01-18T10:05:08.472Z,96030.41
2024-01-18T10:08:10.069Z,96048.34
2024-01-18T10:11:11.597Z,96032.97
2024-01-18T10:14:13.183Z,96036.41
2024-01-18T10:17:22.777Z,96041.50
2024-01-18T10:20:24.570Z,96053.47
2024-01-18T10:23:26.194Z,96047.44
2024-01-18T10:26:31.111Z,96053.44
2024-01-18T10:29:38.692Z,96075.69
2024-01-18T10:32:40.819Z,96086.81
2024-01-18T10:35:42.356Z,96109.00
2024-01-18T10:38:44.113Z,96104.75
2024-01-18T10:41:45.784Z,96112.50
2024-01-18T10:44:48.161Z,96129.56
2024-01-18T10:47:49.641Z,96154.34
2024-01-18T10:50:52.647Z,96143.25
2024-01-18T10:53:55.764Z,96157.81
2024-01-18T10:57:03.201Z,96172.34
2024-01-18T11:00:07.910Z,96173.19
2024-01-18T11:03:09.653Z,96176.63
2024-01-18T11:06:13.491Z,96185.16
2024-01-18T11:09:15.069Z,96189.44
2024-01-18T11:12:16.796Z,96197.13
2024-01-18T11:15:18.392Z,96199.72
2024-01-18T11:18:20.080Z,96209.94
2024-01-18T11:21:28.651Z,96223.63
2024-01-18T11:24:30.123Z,96227.06
2024-01-18T11:27:35.496Z,96235.59
2024-01-18T11:30:37.815Z,96234.72
2024-01-18T11:33:39.413Z,96246.72
2024-01-18T11:36:45.020Z,96249.25
2024-01-18T11:39:49.887Z,96266.34
2024-01-18T11:42:51.588Z,96262.91
2024-01-18T11:45:55.605Z,96280.84
2024-01-18T11:48:57.235Z,96286.81
2024-01-18T11:51:59.488Z,96297.91
2024-01-18T11:55:01.168Z,96306.41
2024-01-18T11:58:02.802Z,96314.09
2024-01-18T12:01:05.963Z,96319.22
2024-01-18T12:04:08.620Z,96338.84
2024-01-18T12:07:11.423Z,96344.81
2024-01-18T12:10:12.967Z,96349.00
2024-01-18T12:13:14.439Z,96355.06
2024-01-18T12:16:16.362Z,96371.19
2024-01-18T12:19:30.091Z,96380.53
2024-01-18T12:22:31.889Z,96394.22
2024-01-18T12:25:33.613Z,96398.41
2024-01-18T12:28:35.065Z,96411.16
2024-01-18T12:31:36.994Z,96417.22
2024-01-18T12:34:38.912Z,96420.56
2024-01-18T12:37:40.650Z,96430.81
2024-01-18T12:40:42.104Z,96434.16
2024-01-18T12:43:43.542Z,96431.63
2024-01-18T12:46:45.700Z,96446.19
2024-01-18T12:49:47.423Z,96456.38
2024-01-18T12:52:52.080Z,96470.84
2024-01-18T12:55:53.500Z,96477.78
2024-01-18T12:58:56.499Z,96489.66
2024-01-18T13:01:58.038Z,96503.34
2024-01-18T13:05:00.168Z,96512.78
2024-01-18T13:08:01.833Z,96518.75
2024-01-18T13:11:04.596Z,96529.91
2024-01-18T13:14:10.382Z,96542.69
2024-01-18T13:17:15.930Z,96545.28
2024-01-18T13:20:17.415Z,96543.50
2024-01-18T13:23:18.960Z,96553.84
2024-01-18T13:26:20.435Z,96556.41
2024-01-18T13:29:21.937Z,96567.44
2024-01-18T13:32:23.663Z,96575.97
2024-01-18T13:35:25.400Z,96588.84
2024-01-18T13:38:26.846Z,96594.88
2024-01-18T13:41:28.321Z,96593.19
2024-01-18T13:44:29.746Z,96609.44
2024-01-18T13:47:31.242Z,96623.94
2024-01-18T13:50:32.764Z,96631.72
2024-01-18T13:53:34.380Z,96647.03
2024-01-18T13:56:36.018Z,96667.63
2024-01-18T13:59:37.562Z,96688.16
2024-01-18T14:02:39.042Z,96706.00
2024-01-18T14:05:41.516Z,96708.53
2024-01-18T14:08:44.687Z,96723.94
2024-01-18T14:11:46.164Z,96729.09
2024-01-18T14:14:47.628Z,96757.34
2024-01-18T14:17:49.408Z,96764.97
2024-01-18T14:20:50.949Z,96764.94
2024-01-18T14:23:52.383Z,96778.66
2024-01-18T14:26:53.972Z,96802.56
2024-01-18T14:29:55.921Z,96821.38
2024-01-18T14:32:57.524Z,96834.94
2024-01-18T14:35:59.100Z,96835.81
2024-01-18T14:39:00.717Z,96846.00
2024-01-18T14:42:02.176Z,96867.34
2024-01-18T14:45:05.262Z,96875.09
2024-01-18T14:48:14.382Z,96885.22
2024-01-18T14:51:15.957Z,96901.44
2024-01-18T14:54:17.398Z,96916.94
2024-01-18T14:57:19.245Z,96919.50
2024-01-18T15:00:21.065Z,96927.19
2024-01-18T15:03:22.696Z,96938.41
2024-01-18T15:06:24.198Z,96953.00
2024-01-18T15:09:25.791Z,96969.16
2024-01-18T15:12:27.362Z,96971.78
2024-01-18T15:15:29.165Z,96976.72
2024-01-18T15:18:30.833Z,96980.22
2024-01-18T15:21:35.019Z,96996.44
2024-01-18T15:24:36.631Z,97004.13
2024-01-18T15:27:38.656Z,97012.56
2024-01-18T15:30:40.185Z,97035.72
2024-01-18T15:33:41.948Z,97042.56
2024-01-18T15:36:43.568Z,97065.75
2024-01-18T15:39:45.052Z,97075.94
2024-01-18T15:42:46.508Z,97093.03
2024-01-18T15:45:47.973Z,97103.41
2024-01-18T15:48:56.533Z,97124.78
2024-01-18T15:51:58.231Z,97145.28
2024-01-18T15:55:00.378Z,97146.97
2024-01-18T15:58:02.053Z,97164.06
2024-01-18T16:01:03.707Z,97177.72
2024-01-18T16:04:05.356Z,97191.34
2024-01-18T16:07:06.929Z,97198.22
2024-01-18T16:10:09.158Z,97187.06
2024-01-18T16:13:10.662Z,97203.28
2024-01-18T16:16:12.220Z,97228.91
2024-01-18T16:19:19.579Z,97240.84
2024-01-18T16:22:21.461Z,97244.28
2024-01-18T16:25:22.922Z,97257.13
2024-01-18T16:28:24.383Z,97254.59
2024-01-18T16:31:26.088Z,97267.47
2024-01-18T16:34:28.928Z,97285.41
2024-01-18T16:37:30.386Z,97302.63
2024-01-18T16:40:32.567Z,97300.09
2024-01-18T16:43:34.251Z,97321.50
2024-01-18T16:46:36.261Z,97326.53
2024-01-18T16:49:38.028Z,97337.69
2024-01-18T16:52:39.672Z,97353.91
2024-01-18T16:55:41.316Z,97357.41
2024-01-18T16:58:43.037Z,97357.47
2024-01-18T17:01:44.578Z,97361.84
2024-01-18T17:04:46.096Z,97365.28
2024-01-18T17:07:47.567Z,97379.78
2024-01-18T17:10:50.787Z,97387.50
2024-01-18T17:13:52.259Z,97390.84
2024-01-18T17:16:53.722Z,97393.38
2024-01-18T17:19:55.276Z,97395.09
2024-01-18T17:22:57.252Z,97408.69
2024-01-18T17:25:59.176Z,97416.53
2024-01-18T17:29:00.637Z,97420.66
2024-01-18T17:32:02.065Z,97440.28
2024-01-18T17:35:03.716Z,97444.56
2024-01-18T17:38:05.275Z,97451.47
2024-01-18T17:41:06.826Z,97442.00
2024-01-18T17:44:08.549Z,97452.75
2024-01-18T17:47:13.650Z,97462.31
2024-01-18T17:50:32.206Z,97469.91
2024-01-18T17:53:34.316Z,97469.19
2024-01-18T17:56:39.107Z,97476.91
2024-01-18T17:59:40.824Z,97474.38
2024-01-18T18:02:45.391Z,97477.72
2024-01-18T18:05:48.338Z,97483.75
2024-01-18T18:08:49.920Z,97482.06
2024-01-18T18:11:51.679Z,97485.50
2024-01-18T18:14:53.187Z,97484.63
2024-01-18T18:17:54.739Z,97486.31
2024-01-18T18:20:56.621Z,97488.78
2024-01-18T18:23:58.045Z,97490.59
2024-01-18T18:26:59.545Z,97497.44
2024-01-18T18:30:01.143Z,97505.16
2024-01-18T18:33:03.617Z,97507.78
2024-01-18T18:36:05.354Z,97517.94
2024-01-18T18:39:06.891Z,97522.31
2024-01-18T18:42:08.764Z,97531.69
2024-01-18T18:45:10.339Z,97525.84
2024-01-18T18:48:11.907Z,97536.06
2024-01-18T18:51:13.441Z,97536.94
2024-01-18T18:54:14.963Z,97537.75
2024-01-18T18:57:16.625Z,97547.19
2024-01-18T19:00:18.136Z,97552.13
2024-01-18T19:03:19.683Z,97563.25
2024-01-18T19:06:21.146Z,97566.66
2024-01-18T19:09:22.614Z,97582.22
2024-01-18T19:12:24.197Z,97576.16
2024-01-18T19:15:25.638Z,97586.41
2024-01-18T19:18:27.258Z,97605.22
2024-01-18T19:21:28.848Z,97619.50
2024-01-18T19:24:30.334Z,97631.59
2024-01-18T19:27:31.795Z,97648.72
2024-01-18T19:30:33.251Z,97655.44
2024-01-18T19:33:34.723Z,97661.53
2024-01-18T19:36:36.270Z,97668.94
2024-01-18T19:39:40.822Z,97662.13
2024-01-18T19:42:45.248Z,97672.00
2024-01-18T19:45:46.769Z,97674.41
2024-01-18T19:48:48.256Z,97675.97
2024-01-18T19:51:50.537Z,97689.88
2024-01-18T19:54:51.971Z,97696.75
2024-01-18T19:57:54.182Z,97716.19
2024-01-18T20:00:55.968Z,97723.00
2024-01-18T20:03:57.759Z,97727.84
2024-01-18T20:06:59.305Z,97737.34
2024-01-18T20:10:01.421Z,97741.44
2024-01-18T20:13:02.869Z,97746.28
2024-01-18T20:16:04.529Z,97760.94
2024-01-18T20:19:06.030Z,97760.19
2024-01-18T20:22:07.647Z,97767.63
2024-01-18T20:25:09.471Z,97771.88
2024-01-18T20:28:10.944Z,97782.97
2024-01-18T20:31:15.259Z,97787.13
2024-01-18T20:34:17.424Z,97789.75
2024-01-18T20:37:19.011Z,97800.06
2024-01-18T20:40:20.502Z,97803.44
2024-01-18T20:43:22.066Z,97816.00
2024-01-18T20:46:23.592Z,97818.50
2024-01-18T20:49:25.228Z,97820.06
2024-01-18T20:52:26.781Z,97826.91
2024-01-18T20:55:28.366Z,97843.06
2024-01-18T20:58:29.803Z,97845.63
2024-01-18T21:01:31.330Z,97852.44
2024-01-18T21:04:34.125Z,97857.56
2024-01-18T21:07:36.934Z,97865.16
2024-01-18T21:10:38.433Z,97875.09
2024-01-18T21:13:39.863Z,97868.16
2024-01-18T21:16:41.383Z,97868.75
2024-01-18T21:19:42.821Z,97870.44
2024-01-18T21:22:44.313Z,97871.97
2024-01-18T21:25:45.815Z,97870.97
2024-01-18T21:28:47.291Z,97875.28
2024-01-18T21:31:48.732Z,97876.84
2024-01-18T21:34:50.965Z,97882.91
2024-01-18T21:37:55.438Z,97885.47
2024-01-18T21:40:56.890Z,97888.03
2024-01-18T21:43:58.533Z,97897.47
2024-01-18T21:47:00.005Z,97895.03
2024-01-18T21:50:01.734Z,97900.88
2024-01-18T21:53:04.881Z,97898.31
2024-01-18T21:56:08.125Z,97899.19
2024-01-18T21:59:10.432Z,97902.34
2024-01-18T22:02:12.440Z,97909.31
2024-01-18T22:05:14.174Z,97912.84
2024-01-18T22:08:15.703Z,97918.78
2024-01-18T22:11:17.175Z,97928.97
2024-01-18T22:14:18.744Z,97928.03
2024-01-18T22:17:21.026Z,97930.81
2024-01-18T22:20:26.231Z,97932.13
2024-01-18T22:23:27.743Z,97942.50
2024-01-18T22:26:29.226Z,97944.81
2024-01-18T22:29:30.766Z,97950.81
2024-01-18T22:32:32.670Z,97949.31
2024-01-18T22:35:34.286Z,97958.72
2024-01-18T22:38:35.897Z,97955.31
2024-01-18T22:41:37.344Z,97963.09
2024-01-18T22:44:38.860Z,97966.34
2024-01-18T22:47:40.705Z,97970.84
2024-01-18T22:50:42.281Z,97978.63
2024-01-18T22:53:44.138Z,97977.78
2024-01-18T22:56:46.446Z,97991.50
2024-01-18T22:59:48.014Z,97994.06
2024-01-18T23:02:49.481Z,97995.34
2024-01-18T23:05:50.982Z,98001.38
2024-01-18T23:08:52.514Z,97999.75
2024-01-18T23:11:54.207Z,98003.28
2024-01-18T23:14:55.667Z,98017.63
2024-01-18T23:17:57.243Z,98012.06
2024-01-18T23:20:58.705Z,98021.13
2024-01-18T23:24:00.149Z,98025.25
2024-01-18T23:27:01.684Z,98026.78
2024-01-18T23:30:03.185Z,98022.00
2024-01-18T23:33:04.853Z,98032.41
2024-01-18T23:36:06.435Z,98042.91
2024-01-18T23:39:08.718Z,98042.09
2024-01-18T23:42:10.162Z,98048.75
2024-01-18T23:45:11.580Z,98055.88
2024-01-18T23:48:13.109Z,98060.50
2024-01-18T23:51:14.670Z,98057.44
2024-01-18T23:54:16.088Z,98061.31
2024-01-18T23:57:17.537Z,98062.06
